Time;durP1;ratioP1;P1;durP2;ratioP2;P2;SDS_P1;SDS_P2;PMS_P1;PMS_P2;Temp;Humidity;BMP_temperature;BMP_pressure;BME280_temperature;BME280_humidity;BME280_pressure;Samples;Min_cycle;Max_cycle;Signal;HPM_P1;HPM_P2
2021/03/10 08:04:56;;;;;;;14.00;5.50;;;6.70;99.90;;;;;;4954846;23;20237;-74
2021/03/10 08:07:23;;;;;;;13.17;5.40;;;6.80;99.90;;;;;;4922552;29;20229;-77
2021/03/10 08:09:51;;;;;;;10.87;5.37;;;6.90;99.90;;;;;;4925393;29;20206;-78
2021/03/10 08:12:20;;;;;;;11.13;4.90;;;7.00;99.90;;;;;;4920164;29;20233;-75
2021/03/10 08:14:47;;;;;;;10.53;5.27;;;7.00;99.90;;;;;;4919829;29;20214;-72
2021/03/10 08:17:22;;;;;;;8.73;4.23;;;7.10;99.90;;;;;;4919172;29;20220;-77
2021/03/10 08:19:52;;;;;;;11.00;4.17;;;7.10;99.90;;;;;;4919143;29;20209;-74
2021/03/10 08:22:20;;;;;;;10.57;4.73;;;7.10;99.90;;;;;;4919112;29;20240;-75
2021/03/10 08:24:46;;;;;;;9.07;3.90;;;7.00;99.90;;;;;;4919049;29;20210;-73
2021/03/10 08:27:12;;;;;;;11.23;4.70;;;7.10;99.90;;;;;;4918933;29;20212;-74
2021/03/10 08:29:46;;;;;;;7.90;3.13;;;7.10;99.90;;;;;;4919033;29;20221;-77
2021/03/10 08:32:23;;;;;;;8.63;4.27;;;7.40;99.90;;;;;;4918586;29;20292;-74
2021/03/10 08:34:50;;;;;;;7.17;3.67;;;7.50;99.90;;;;;;4918695;29;20213;-77
2021/03/10 08:37:17;;;;;;;7.90;4.20;;;7.60;99.90;;;;;;4917523;29;20673;-75
2021/03/10 08:39:45;;;;;;;9.13;4.20;;;7.50;99.90;;;;;;4918131;29;20213;-75
2021/03/10 08:42:16;;;;;;;8.93;4.73;;;7.40;99.90;;;;;;4918261;29;20245;-75
2021/03/10 08:44:44;;;;;;;7.80;3.80;;;7.40;99.90;;;;;;4917959;29;20205;-74
2021/03/10 08:47:13;;;;;;;8.50;3.63;;;7.50;99.90;;;;;;4918182;29;20210;-75
2021/03/10 08:49:39;;;;;;;9.43;4.00;;;7.40;99.90;;;;;;4917910;29;20553;-75
2021/03/10 08:52:09;;;;;;;7.90;3.47;;;7.40;99.90;;;;;;4917427;29;20234;-74
2021/03/10 08:54:46;;;;;;;8.00;4.03;;;7.60;99.90;;;;;;4917749;29;20225;-79
2021/03/10 08:57:13;;;;;;;7.40;3.47;;;7.80;99.90;;;;;;4917857;29;20210;-77
2021/03/10 08:59:40;;;;;;;10.70;3.33;;;8.00;99.90;;;;;;4917947;29;20276;-77
2021/03/10 09:02:06;;;;;;;8.60;3.13;;;8.30;99.90;;;;;;4917925;29;20320;-77
2021/03/10 09:04:33;;;;;;;7.50;3.77;;;8.50;99.90;;;;;;4917798;29;20583;-78
2021/03/10 09:07:00;;;;;;;6.93;3.20;;;8.50;99.90;;;;;;4918093;29;20284;-80
2021/03/10 09:09:27;;;;;;;5.63;3.20;;;8.60;99.90;;;;;;4917841;29;20244;-76
2021/03/10 09:11:56;;;;;;;6.70;3.50;;;8.80;99.90;;;;;;4917560;29;20729;-82
2021/03/10 09:14:23;;;;;;;7.47;3.13;;;9.00;99.90;;;;;;4917801;29;20205;-82
2021/03/10 09:16:51;;;;;;;6.50;3.23;;;9.10;99.90;;;;;;4917681;29;20568;-78
2021/03/10 09:19:27;;;;;;;6.30;2.30;;;9.30;99.90;;;;;;4917551;29;20627;-76
2021/03/10 09:22:12;;;;;;;7.67;2.73;;;9.40;99.90;;;;;;4917527;29;20237;-78
2021/03/10 09:24:53;;;;;;;5.90;2.80;;;9.30;99.90;;;;;;4917517;29;20217;-78
2021/03/10 09:27:26;;;;;;;5.37;2.87;;;9.30;99.90;;;;;;4917294;29;20217;-75
2021/03/10 09:29:54;;;;;;;5.17;2.60;;;9.30;99.90;;;;;;4917536;29;20214;-78
2021/03/10 09:32:21;;;;;;;4.10;2.10;;;9.30;99.90;;;;;;4918260;29;20225;-77
2021/03/10 09:34:48;;;;;;;7.70;2.50;;;9.50;99.90;;;;;;4917846;29;20213;-81
2021/03/10 09:37:15;;;;;;;4.87;2.60;;;9.60;99.90;;;;;;4917904;29;20296;-79
2021/03/10 09:39:46;;;;;;;4.30;2.60;;;9.80;99.90;;;;;;4917838;29;20546;-74
2021/03/10 09:42:12;;;;;;;5.03;2.10;;;9.70;99.90;;;;;;4917637;29;20296;-74
2021/03/10 09:44:57;;;;;;;4.33;2.00;;;9.80;99.90;;;;;;4918124;29;20210;-78
2021/03/10 09:47:26;;;;;;;5.37;2.50;;;9.90;99.90;;;;;;4917358;29;20589;-78
2021/03/10 09:49:54;;;;;;;5.77;2.37;;;9.80;99.90;;;;;;4917001;29;20213;-74
2021/03/10 09:52:34;;;;;;;3.60;2.10;;;10.00;99.90;;;;;;4917085;29;20230;-79
2021/03/10 09:55:03;;;;;;;4.10;2.20;;;10.20;99.90;;;;;;4917368;29;20294;-72
2021/03/10 09:57:30;;;;;;;8.83;2.60;;;10.40;99.90;;;;;;4917402;29;20265;-73
2021/03/10 09:59:57;;;;;;;6.60;2.67;;;10.50;99.90;;;;;;4916996;29;20206;-73
2021/03/10 10:02:24;;;;;;;4.70;2.33;;;10.40;99.90;;;;;;4916626;29;20230;-75
2021/03/10 10:04:59;;;;;;;6.03;3.13;;;10.40;99.90;;;;;;4916928;29;20355;-74
2021/03/10 10:07:26;;;;;;;4.97;3.00;;;10.30;99.90;;;;;;4916643;29;20216;-80
2021/03/10 10:09:52;;;;;;;7.10;2.80;;;10.40;99.90;;;;;;4916846;29;20268;-81
2021/03/10 10:12:19;;;;;;;5.97;3.33;;;10.50;99.90;;;;;;4916707;29;20233;-79
2021/03/10 10:14:45;;;;;;;4.50;3.00;;;10.40;99.90;;;;;;4916822;29;20213;-76
2021/03/10 10:17:13;;;;;;;7.37;3.07;;;10.60;99.90;;;;;;4916871;29;20668;-81
2021/03/10 10:19:39;;;;;;;5.50;3.10;;;10.60;99.90;;;;;;4916613;29;20210;-81
2021/03/10 10:22:05;;;;;;;5.07;3.23;;;10.70;99.90;;;;;;4916673;29;20230;-77
2021/03/10 10:24:31;;;;;;;5.80;3.10;;;10.60;99.90;;;;;;4916928;29;20213;-81
2021/03/10 10:26:58;;;;;;;6.73;3.80;;;10.60;99.90;;;;;;4916636;29;20213;-78
2021/03/10 10:29:24;;;;;;;7.27;3.63;;;10.30;99.90;;;;;;4916639;29;20237;-72
2021/03/10 10:31:50;;;;;;;6.50;3.50;;;10.30;99.90;;;;;;4916548;29;20236;-75
2021/03/10 10:34:18;;;;;;;8.73;4.03;;;10.40;99.90;;;;;;4916472;29;20213;-79
2021/03/10 10:36:44;;;;;;;7.07;3.50;;;10.40;99.90;;;;;;4916537;29;20213;-80
2021/03/10 10:39:10;;;;;;;7.03;3.83;;;10.40;99.90;;;;;;4916584;29;20213;-73
2021/03/10 10:41:37;;;;;;;7.90;4.10;;;10.50;99.90;;;;;;4916546;29;20233;-74
2021/03/10 10:44:03;;;;;;;6.27;3.67;;;10.70;99.90;;;;;;4916581;29;20220;-80
2021/03/10 10:46:29;;;;;;;9.17;3.83;;;10.80;99.90;;;;;;4916541;29;20213;-78
2021/03/10 10:48:56;;;;;;;10.43;3.67;;;10.90;99.90;;;;;;4916339;29;20245;-75
2021/03/10 10:51:23;;;;;;;7.80;4.60;;;10.90;99.90;;;;;;4916548;29;20252;-75
2021/03/10 10:53:49;;;;;;;9.77;4.97;;;10.90;99.90;;;;;;4916503;29;20210;-80
2021/03/10 10:56:16;;;;;;;8.17;3.90;;;11.10;99.90;;;;;;4916456;29;20213;-78
2021/03/10 10:58:42;;;;;;;6.83;3.73;;;11.10;99.90;;;;;;4916230;29;20688;-79
2021/03/10 11:01:08;;;;;;;6.00;3.37;;;11.20;99.90;;;;;;4917397;29;20235;-77
2021/03/10 11:03:35;;;;;;;6.47;3.80;;;11.30;99.90;;;;;;4919700;29;20249;-80
2021/03/10 11:06:01;;;;;;;7.10;3.90;;;11.30;99.90;;;;;;4919705;29;20681;-81
2021/03/10 11:08:28;;;;;;;9.83;4.30;;;11.20;99.90;;;;;;4919912;29;20237;-75
2021/03/10 11:10:55;;;;;;;8.27;3.23;;;11.10;99.90;;;;;;4920041;29;20209;-77
2021/03/10 11:13:21;;;;;;;9.57;3.40;;;11.10;99.90;;;;;;4919845;29;20237;-74
2021/03/10 11:15:47;;;;;;;7.03;4.37;;;11.30;99.90;;;;;;4919729;29;20672;-77
2021/03/10 11:18:13;;;;;;;6.80;3.23;;;11.40;99.90;;;;;;4919890;29;20256;-77
2021/03/10 11:20:40;;;;;;;7.43;3.60;;;11.40;99.90;;;;;;4919838;29;20210;-81
2021/03/10 11:23:06;;;;;;;7.07;3.70;;;11.20;99.90;;;;;;4919595;29;20229;-81
2021/03/10 11:25:33;;;;;;;7.93;4.00;;;11.20;99.90;;;;;;4919645;29;20213;-79
2021/03/10 11:27:59;;;;;;;10.83;4.60;;;11.30;99.90;;;;;;4919588;29;20237;-79
2021/03/10 11:30:26;;;;;;;9.53;4.33;;;11.50;99.90;;;;;;4919521;29;20210;-74
2021/03/10 11:32:52;;;;;;;9.57;4.80;;;11.60;99.90;;;;;;4919686;29;20234;-80
2021/03/10 11:35:21;;;;;;;8.13;4.13;;;11.70;99.90;;;;;;4919468;29;20214;-76
2021/03/10 11:37:47;;;;;;;8.83;4.20;;;11.80;99.90;;;;;;4919147;29;20277;-78
2021/03/10 11:40:14;;;;;;;9.10;4.03;;;11.50;99.90;;;;;;4919306;29;20280;-83
2021/03/10 11:42:42;;;;;;;10.37;4.23;;;11.30;99.90;;;;;;4919368;29;20280;-80
2021/03/10 11:45:09;;;;;;;10.27;4.90;;;11.40;99.90;;;;;;4919544;29;20296;-80
2021/03/10 11:47:35;;;;;;;12.13;4.27;;;11.60;99.90;;;;;;4919314;29;20213;-79
2021/03/10 11:50:03;;;;;;;8.53;3.80;;;11.70;99.90;;;;;;4919378;29;20233;-80
2021/03/10 11:52:29;;;;;;;10.77;4.40;;;11.70;99.90;;;;;;4918848;29;20230;-81
2021/03/10 11:54:55;;;;;;;8.63;4.67;;;11.70;99.90;;;;;;4919109;29;20220;-81
2021/03/10 11:57:21;;;;;;;9.93;4.37;;;11.70;99.90;;;;;;4919007;29;20669;-75
2021/03/10 11:59:49;;;;;;;9.53;4.37;;;11.80;99.90;;;;;;4918793;29;20280;-77
2021/03/10 12:02:15;;;;;;;9.50;4.70;;;11.80;99.90;;;;;;4919160;29;20233;-80
2021/03/10 12:04:41;;;;;;;7.57;4.13;;;11.90;99.90;;;;;;4918681;29;20221;-78
2021/03/10 12:07:08;;;;;;;9.40;4.67;;;11.80;99.90;;;;;;4918946;29;20691;-81
2021/03/10 12:09:34;;;;;;;11.83;5.17;;;11.80;99.90;;;;;;4918654;29;20247;-81
2021/03/10 12:12:00;;;;;;;12.23;4.10;;;11.80;99.90;;;;;;4918255;29;20576;-80
2021/03/10 12:14:27;;;;;;;11.60;5.07;;;11.80;99.90;;;;;;4918236;29;20218;-82
2021/03/10 12:16:54;;;;;;;8.23;3.93;;;11.90;99.90;;;;;;4918938;29;20213;-83
2021/03/10 12:19:20;;;;;;;9.20;4.00;;;12.10;99.90;;;;;;4918920;29;20235;-80
2021/03/10 12:21:46;;;;;;;9.63;4.20;;;11.80;99.90;;;;;;4918697;29;20296;-80
2021/03/10 12:24:13;;;;;;;7.87;4.33;;;11.70;99.90;;;;;;4918679;29;20209;-79
2021/03/10 12:26:40;;;;;;;8.30;3.97;;;11.50;99.90;;;;;;4918701;29;20232;-80
2021/03/10 12:29:06;;;;;;;8.93;3.67;;;11.60;99.90;;;;;;4918299;29;20238;-80
2021/03/10 12:31:32;;;;;;;11.03;5.30;;;11.70;99.90;;;;;;4918218;29;20709;-81
2021/03/10 12:33:59;;;;;;;9.10;3.77;;;11.80;99.90;;;;;;4918856;29;20205;-79
2021/03/10 12:36:25;;;;;;;8.53;4.70;;;11.70;99.90;;;;;;4918388;29;20276;-80
2021/03/10 12:38:52;;;;;;;8.20;4.67;;;11.70;99.90;;;;;;4918505;29;20213;-80
2021/03/10 12:41:18;;;;;;;8.17;4.40;;;11.80;99.90;;;;;;4918077;29;20233;-80
2021/03/10 12:43:44;;;;;;;8.67;4.60;;;12.10;99.90;;;;;;4917948;29;20217;-80
2021/03/10 12:46:10;;;;;;;10.07;5.37;;;12.40;99.90;;;;;;4918151;29;20221;-74
2021/03/10 12:48:37;;;;;;;12.37;5.27;;;12.40;99.90;;;;;;4918586;29;20237;-80
2021/03/10 12:51:04;;;;;;;8.67;4.83;;;12.30;99.90;;;;;;4917861;29;20220;-81
2021/03/10 12:53:30;;;;;;;9.17;4.50;;;12.10;99.90;;;;;;4919211;29;20210;-79
2021/03/10 12:55:56;;;;;;;11.07;4.90;;;12.20;99.90;;;;;;4918798;29;20209;-80
2021/03/10 12:58:22;;;;;;;9.07;4.70;;;12.20;99.90;;;;;;4919331;29;20210;-80
2021/03/10 13:00:49;;;;;;;8.40;4.30;;;12.40;99.90;;;;;;4920246;29;20257;-79
2021/03/10 13:03:15;;;;;;;8.77;3.97;;;12.30;99.90;;;;;;4918070;29;20607;-78
2021/03/10 13:05:41;;;;;;;10.17;4.60;;;12.20;99.90;;;;;;4917730;29;20225;-80
2021/03/10 13:08:08;;;;;;;9.33;4.83;;;12.50;99.90;;;;;;4917746;29;20229;-80
2021/03/10 13:10:34;;;;;;;8.83;4.57;;;12.60;99.90;;;;;;4917764;29;20213;-78
2021/03/10 13:13:01;;;;;;;9.13;4.87;;;12.60;99.90;;;;;;4917807;29;20248;-79
2021/03/10 13:15:27;;;;;;;13.20;5.40;;;12.50;99.90;;;;;;4917775;29;20296;-79
2021/03/10 13:17:53;;;;;;;9.37;4.57;;;12.50;99.90;;;;;;4917644;29;20218;-81
2021/03/10 13:20:20;;;;;;;10.50;5.50;;;12.60;99.90;;;;;;4918960;29;20210;-79
2021/03/10 13:22:46;;;;;;;10.63;4.53;;;12.60;99.90;;;;;;4918553;29;20233;-76
2021/03/10 13:25:14;;;;;;;10.23;4.93;;;12.20;99.90;;;;;;4917372;29;20209;-80
2021/03/10 13:27:41;;;;;;;10.87;5.20;;;11.90;99.90;;;;;;4917934;29;20213;-81
2021/03/10 13:30:09;;;;;;;9.57;4.50;;;11.90;99.90;;;;;;4917880;29;20213;-80
2021/03/10 13:32:35;;;;;;;11.53;5.30;;;11.90;99.90;;;;;;4917174;29;20233;-80
2021/03/10 13:35:01;;;;;;;10.07;5.10;;;11.90;99.90;;;;;;4917345;29;20217;-79
2021/03/10 13:37:28;;;;;;;12.53;5.17;;;12.00;99.90;;;;;;4917374;29;20322;-78
2021/03/10 13:39:54;;;;;;;17.00;5.97;;;12.00;99.90;;;;;;4917203;29;20225;-78
2021/03/10 13:42:21;;;;;;;10.30;6.03;;;11.70;99.90;;;;;;4916453;29;20233;-79
2021/03/10 13:44:47;;;;;;;12.53;5.60;;;11.70;99.90;;;;;;4917168;29;20210;-79
2021/03/10 13:47:14;;;;;;;15.63;5.53;;;11.70;99.90;;;;;;4917336;29;20214;-79
2021/03/10 13:49:40;;;;;;;10.90;5.27;;;11.80;99.90;;;;;;4917023;29;20240;-80
2021/03/10 13:52:07;;;;;;;9.93;5.10;;;11.80;99.90;;;;;;4916990;29;20244;-80
2021/03/10 13:54:33;;;;;;;12.17;5.97;;;11.70;99.90;;;;;;4917119;29;20565;-79
2021/03/10 13:56:59;;;;;;;13.53;5.27;;;11.70;99.90;;;;;;4917063;29;20213;-78
2021/03/10 13:59:26;;;;;;;10.70;5.60;;;11.70;99.90;;;;;;4917324;29;20311;-79
2021/03/10 14:01:57;;;;;;;15.63;5.23;;;11.80;99.90;;;;;;4917818;29;20237;-82
2021/03/10 14:04:23;;;;;;;10.87;4.73;;;11.90;99.90;;;;;;4917067;29;20280;-80
2021/03/10 14:06:49;;;;;;;12.67;6.10;;;11.70;99.90;;;;;;4916796;29;20220;-78
2021/03/10 14:09:16;;;;;;;11.40;5.13;;;11.70;99.90;;;;;;4917095;29;20366;-78
2021/03/10 14:11:42;;;;;;;10.07;5.13;;;11.80;99.90;;;;;;4917401;29;20256;-79
2021/03/10 14:14:08;;;;;;;11.53;5.10;;;11.80;99.90;;;;;;4916979;29;20213;-78
2021/03/10 14:16:35;;;;;;;9.17;4.40;;;11.90;99.70;;;;;;4916705;29;20214;-79
2021/03/10 14:19:02;;;;;;;10.83;5.70;;;11.80;99.20;;;;;;4916669;29;20260;-79
2021/03/10 14:21:28;;;;;;;11.60;5.03;;;11.70;99.10;;;;;;4916446;29;20226;-79
2021/03/10 14:23:54;;;;;;;12.40;5.53;;;11.70;99.60;;;;;;4917060;29;20220;-79
2021/03/10 14:26:20;;;;;;;11.90;5.27;;;11.80;99.70;;;;;;4916967;29;20264;-81
2021/03/10 14:28:46;;;;;;;11.37;4.77;;;11.90;99.40;;;;;;4916499;29;20245;-77
2021/03/10 14:31:13;;;;;;;10.77;4.80;;;11.80;99.40;;;;;;4916848;29;20220;-78
2021/03/10 14:33:44;;;;;;;11.00;5.70;;;11.80;99.40;;;;;;4916602;29;20281;-76
2021/03/10 14:36:10;;;;;;;8.10;4.83;;;11.80;99.50;;;;;;4917683;29;20217;-79
2021/03/10 14:38:36;;;;;;;12.00;5.17;;;11.80;99.40;;;;;;4920462;29;20565;-81
2021/03/10 14:41:03;;;;;;;11.53;5.20;;;11.80;99.60;;;;;;4920261;29;20681;-79
2021/03/10 14:43:29;;;;;;;12.30;5.23;;;11.80;99.20;;;;;;4920352;29;20213;-81
2021/03/10 14:45:55;;;;;;;9.03;4.27;;;11.80;99.40;;;;;;4920332;29;20216;-78
2021/03/10 14:48:21;;;;;;;10.27;4.80;;;11.70;99.10;;;;;;4920178;29;20241;-81
2021/03/10 14:50:49;;;;;;;11.50;5.27;;;11.60;99.10;;;;;;4920409;29;20213;-80
2021/03/10 14:53:15;;;;;;;10.60;4.67;;;11.50;99.10;;;;;;4919925;29;20229;-79
2021/03/10 14:55:41;;;;;;;9.27;5.00;;;11.50;99.40;;;;;;4920275;29;20217;-79
2021/03/10 14:58:07;;;;;;;12.37;5.57;;;11.70;98.60;;;;;;4920029;29;20213;-79
2021/03/10 15:00:34;;;;;;;10.67;5.03;;;11.70;99.10;;;;;;4919977;29;20217;-79
2021/03/10 15:03:00;;;;;;;11.17;4.80;;;11.70;99.00;;;;;;4919789;29;20589;-77
2021/03/10 15:05:26;;;;;;;9.07;4.73;;;11.60;98.40;;;;;;4919799;29;20218;-77
2021/03/10 15:07:53;;;;;;;9.87;5.00;;;11.50;98.40;;;;;;4919820;29;20210;-80
2021/03/10 15:10:19;;;;;;;13.80;4.33;;;11.40;98.20;;;;;;4919880;29;20210;-76
2021/03/10 15:12:46;;;;;;;11.17;4.97;;;11.40;98.80;;;;;;4919662;29;20237;-75
2021/03/10 15:15:13;;;;;;;13.93;4.93;;;11.50;98.40;;;;;;4919815;29;20304;-76
2021/03/10 15:17:39;;;;;;;10.17;5.37;;;11.40;98.20;;;;;;4919675;29;20210;-78
2021/03/10 15:20:07;;;;;;;11.60;5.53;;;11.40;98.40;;;;;;4919787;29;20214;-79
2021/03/10 15:22:34;;;;;;;11.37;5.17;;;11.40;98.20;;;;;;4919516;29;20237;-82
2021/03/10 15:25:02;;;;;;;10.33;4.43;;;11.30;98.20;;;;;;4919455;29;20261;-80
2021/03/10 15:27:28;;;;;;;11.93;5.07;;;11.40;98.80;;;;;;4919536;29;20256;-82
2021/03/10 15:29:55;;;;;;;12.10;4.77;;;11.50;98.40;;;;;;4919503;29;20241;-80
2021/03/10 15:32:21;;;;;;;9.20;4.90;;;11.70;98.60;;;;;;4919566;29;20708;-80
2021/03/10 15:34:47;;;;;;;11.63;5.53;;;11.70;98.20;;;;;;4919991;29;20210;-79
2021/03/10 15:37:14;;;;;;;12.60;4.90;;;11.70;98.40;;;;;;4920028;29;20213;-81
2021/03/10 15:39:40;;;;;;;10.10;4.93;;;11.60;98.20;;;;;;4920132;29;20665;-78
2021/03/10 15:42:08;;;;;;;10.63;4.83;;;11.50;98.40;;;;;;4919752;29;20329;-81
2021/03/10 15:44:34;;;;;;;10.77;5.23;;;11.60;98.70;;;;;;4920084;29;20669;-78
2021/03/10 15:47:00;;;;;;;11.33;5.37;;;11.60;98.30;;;;;;4919718;29;20664;-79
2021/03/10 15:49:27;;;;;;;9.17;4.70;;;11.60;98.30;;;;;;4919105;29;20241;-74
2021/03/10 15:51:53;;;;;;;11.90;5.40;;;11.40;98.20;;;;;;4919228;29;20233;-78
2021/03/10 15:54:19;;;;;;;11.97;5.27;;;11.30;98.40;;;;;;4919359;29;20577;-77
2021/03/10 15:56:46;;;;;;;12.20;5.40;;;11.30;98.30;;;;;;4919172;29;20206;-80
2021/03/10 15:59:13;;;;;;;12.63;5.23;;;11.20;98.20;;;;;;4919033;29;20257;-80
2021/03/10 16:01:39;;;;;;;13.13;5.13;;;11.10;98.60;;;;;;4919055;29;20238;-78
2021/03/10 16:04:05;;;;;;;12.43;4.40;;;11.10;98.60;;;;;;4919217;29;20209;-79
2021/03/10 16:06:32;;;;;;;12.57;4.63;;;11.00;98.90;;;;;;4918967;29;20213;-81
2021/03/10 16:08:58;;;;;;;9.67;5.07;;;11.10;99.00;;;;;;4918993;29;20244;-81
2021/03/10 16:11:25;;;;;;;11.27;5.40;;;11.10;98.90;;;;;;4918664;29;20230;-80
2021/03/10 16:13:53;;;;;;;13.27;5.47;;;11.00;98.80;;;;;;4918842;29;20224;-76
2021/03/10 16:16:20;;;;;;;10.17;4.33;;;10.90;99.20;;;;;;4919076;29;20237;-74
2021/03/10 16:18:47;;;;;;;13.23;5.30;;;10.90;99.00;;;;;;4918802;29;20220;-79
2021/03/10 16:21:13;;;;;;;12.87;4.70;;;10.80;99.00;;;;;;4918480;29;20210;-78
2021/03/10 16:23:39;;;;;;;13.57;5.10;;;10.90;99.40;;;;;;4918545;29;20577;-78
2021/03/10 16:26:06;;;;;;;11.80;5.27;;;10.90;99.30;;;;;;4918416;29;20693;-81
2021/03/10 16:28:32;;;;;;;9.93;4.87;;;10.90;99.40;;;;;;4918404;29;20293;-79
2021/03/10 16:30:58;;;;;;;13.67;5.30;;;10.90;99.40;;;;;;4918527;29;20285;-77
2021/03/10 16:33:26;;;;;;;9.37;4.60;;;10.90;99.10;;;;;;4918245;29;20665;-78
2021/03/10 16:35:53;;;;;;;10.20;4.40;;;10.90;99.30;;;;;;4918219;29;20233;-79
2021/03/10 16:38:19;;;;;;;12.80;4.97;;;10.90;98.90;;;;;;4918163;29;20569;-77
2021/03/10 16:40:45;;;;;;;14.47;5.77;;;10.90;99.00;;;;;;4918415;29;20205;-79
2021/03/10 16:43:11;;;;;;;11.53;4.93;;;10.90;98.90;;;;;;4918074;29;20701;-79
2021/03/10 16:45:37;;;;;;;9.67;5.13;;;10.90;98.80;;;;;;4918337;29;20233;-79
2021/03/10 16:48:05;;;;;;;10.63;5.00;;;10.80;98.70;;;;;;4918180;29;20217;-78
2021/03/10 16:50:32;;;;;;;10.80;5.40;;;10.80;98.60;;;;;;4918042;29;20209;-79
2021/03/10 16:52:58;;;;;;;10.97;4.90;;;10.70;98.90;;;;;;4917750;29;20230;-79
2021/03/10 16:55:24;;;;;;;12.40;4.80;;;10.70;98.90;;;;;;4917925;29;20569;-79
2021/03/10 16:57:51;;;;;;;9.53;4.00;;;10.70;99.00;;;;;;4917713;29;20289;-78
2021/03/10 17:00:18;;;;;;;9.00;4.30;;;10.60;99.70;;;;;;4917305;29;20688;-78
2021/03/10 17:02:44;;;;;;;12.00;5.10;;;10.60;99.50;;;;;;4917688;29;20585;-80
2021/03/10 17:05:12;;;;;;;9.87;4.93;;;10.50;99.80;;;;;;4917736;29;20217;-83
2021/03/10 17:07:39;;;;;;;12.33;5.43;;;10.50;99.90;;;;;;4917718;29;20213;-79
2021/03/10 17:10:07;;;;;;;10.60;4.93;;;10.40;99.90;;;;;;4917642;29;20241;-80
2021/03/10 17:12:34;;;;;;;12.13;4.63;;;10.40;99.90;;;;;;4917856;29;20347;-81
2021/03/10 17:15:00;;;;;;;12.07;5.40;;;10.40;99.90;;;;;;4917478;29;20260;-80
2021/03/10 17:17:27;;;;;;;12.83;5.90;;;10.40;99.90;;;;;;4917752;29;20213;-80
2021/03/10 17:19:53;;;;;;;11.47;5.67;;;10.40;99.90;;;;;;4917502;29;20214;-74
2021/03/10 17:22:19;;;;;;;10.20;4.70;;;10.30;99.90;;;;;;4917390;29;20233;-73
2021/03/10 17:24:46;;;;;;;9.40;4.73;;;10.20;99.90;;;;;;4917285;29;20210;-75
2021/03/10 17:27:13;;;;;;;9.70;4.33;;;10.00;99.90;;;;;;4917409;29;20217;-77
2021/03/10 17:29:39;;;;;;;9.87;4.47;;;9.90;99.90;;;;;;4917089;29;20241;-78
2021/03/10 17:32:06;;;;;;;10.50;5.10;;;9.80;99.90;;;;;;4917277;29;20234;-79
2021/03/10 17:34:32;;;;;;;11.10;4.87;;;9.70;99.90;;;;;;4917363;29;20214;-82
2021/03/10 17:36:59;;;;;;;12.97;5.47;;;9.60;99.90;;;;;;4917004;29;20209;-75
2021/03/10 17:39:25;;;;;;;11.57;5.20;;;9.50;99.90;;;;;;4917648;29;20210;-80
2021/03/10 17:41:52;;;;;;;11.87;5.47;;;9.30;99.90;;;;;;4917073;29;20735;-77
2021/03/10 17:44:19;;;;;;;13.20;5.20;;;9.20;99.90;;;;;;4917256;29;20507;-81
2021/03/10 17:46:45;;;;;;;10.87;5.00;;;9.10;99.90;;;;;;4917166;29;20213;-81
2021/03/10 17:49:11;;;;;;;11.93;5.63;;;9.00;99.90;;;;;;4917211;29;20241;-77
2021/03/10 17:51:37;;;;;;;13.47;5.50;;;8.90;99.90;;;;;;4916877;29;20281;-80
2021/03/10 17:54:04;;;;;;;10.60;4.87;;;8.80;99.90;;;;;;4916857;29;20213;-81
2021/03/10 17:56:31;;;;;;;13.33;4.80;;;8.60;99.90;;;;;;4917001;29;20221;-80
2021/03/10 17:58:59;;;;;;;14.83;5.80;;;8.50;99.90;;;;;;4916955;29;20224;-75
2021/03/10 18:01:25;;;;;;;12.17;5.43;;;8.50;99.90;;;;;;4916831;29;20233;-79
2021/03/10 18:03:51;;;;;;;10.80;4.90;;;8.30;99.90;;;;;;4916823;29;20216;-80
2021/03/10 18:06:18;;;;;;;9.07;3.80;;;8.30;99.90;;;;;;4916986;29;20315;-77
2021/03/10 18:08:44;;;;;;;11.30;4.67;;;8.20;99.90;;;;;;4916834;29;20237;-80
2021/03/10 18:11:10;;;;;;;11.60;4.53;;;8.10;99.90;;;;;;4916926;29;20218;-76
2021/03/10 18:13:36;;;;;;;12.43;5.53;;;8.00;99.90;;;;;;4916915;29;20665;-77
2021/03/10 18:16:04;;;;;;;14.93;6.37;;;7.90;99.90;;;;;;4915576;29;20213;-74
2021/03/10 18:18:30;;;;;;;15.13;4.97;;;7.80;99.90;;;;;;4905244;29;20218;-75
2021/03/10 18:20:57;;;;;;;12.00;5.37;;;7.70;99.90;;;;;;4912091;29;20209;-73
2021/03/10 18:23:23;;;;;;;11.73;4.87;;;7.70;99.90;;;;;;4902731;29;20230;-75
2021/03/10 18:25:50;;;;;;;13.50;5.80;;;7.60;99.90;;;;;;4903770;29;20220;-74
2021/03/10 18:28:16;;;;;;;14.37;6.23;;;7.50;99.90;;;;;;4912257;29;20217;-74
2021/03/10 18:30:43;;;;;;;10.87;4.83;;;7.40;99.90;;;;;;4909706;29;20264;-74
2021/03/10 18:33:12;;;;;;;13.77;5.50;;;7.40;99.90;;;;;;4903676;29;20233;-74
2021/03/10 18:35:38;;;;;;;11.23;5.43;;;7.40;99.90;;;;;;4915813;29;20244;-75
2021/03/10 18:38:05;;;;;;;11.90;6.00;;;7.40;99.90;;;;;;4905825;29;20221;-75
2021/03/10 18:40:31;;;;;;;15.80;5.90;;;7.40;99.90;;;;;;4907362;29;20654;-75
2021/03/10 18:42:57;;;;;;;15.20;5.87;;;7.50;99.90;;;;;;4909859;29;20718;-76
2021/03/10 18:45:24;;;;;;;13.70;6.47;;;7.50;99.90;;;;;;4915886;29;20213;-75
2021/03/10 18:47:51;;;;;;;11.17;5.13;;;7.60;99.90;;;;;;4903047;29;20693;-75
2021/03/10 18:50:20;;;;;;;11.57;4.97;;;7.60;99.90;;;;;;4907282;29;20588;-75
2021/03/10 18:52:49;;;;;;;12.43;5.27;;;7.70;99.90;;;;;;4905491;29;20245;-75
2021/03/10 18:55:16;;;;;;;13.50;5.70;;;7.70;99.90;;;;;;4907404;29;20217;-74
2021/03/10 18:57:42;;;;;;;15.10;5.93;;;7.80;99.90;;;;;;4907410;29;20217;-75
2021/03/10 19:00:10;;;;;;;12.83;5.30;;;7.80;99.90;;;;;;4903128;29;20214;-74
2021/03/10 19:02:37;;;;;;;11.97;4.90;;;7.80;99.90;;;;;;4910404;29;20225;-75
2021/03/10 19:05:04;;;;;;;8.77;4.27;;;7.80;99.90;;;;;;4907371;29;20243;-75
2021/03/10 19:07:31;;;;;;;11.63;5.67;;;7.90;99.90;;;;;;4911835;29;20214;-76
2021/03/10 19:09:58;;;;;;;12.30;4.63;;;7.90;99.90;;;;;;4907002;29;20266;-74
2021/03/10 19:12:24;;;;;;;13.00;4.77;;;7.90;99.90;;;;;;4907798;29;20217;-73
2021/03/10 19:14:51;;;;;;;12.43;5.03;;;7.90;99.90;;;;;;4912345;29;20677;-74
2021/03/10 19:17:17;;;;;;;9.47;4.47;;;7.90;99.90;;;;;;4908265;29;20211;-74
2021/03/10 19:19:43;;;;;;;10.50;4.83;;;7.80;99.90;;;;;;4915102;29;20205;-76
2021/03/10 19:22:10;;;;;;;10.83;4.37;;;7.80;99.90;;;;;;4917400;29;20226;-74
2021/03/10 19:24:37;;;;;;;11.33;5.07;;;7.70;99.90;;;;;;4920227;29;20264;-74
2021/03/10 19:27:04;;;;;;;7.90;3.40;;;7.70;99.90;;;;;;4910312;29;20904;-73
2021/03/10 19:29:31;;;;;;;10.60;4.83;;;7.60;99.90;;;;;;4918852;29;20711;-74
2021/03/10 19:32:00;;;;;;;12.03;5.17;;;7.50;99.90;;;;;;4920594;29;20233;-74
2021/03/10 19:34:27;;;;;;;15.27;4.87;;;7.40;99.90;;;;;;4913820;29;20685;-74
2021/03/10 19:36:53;;;;;;;11.50;5.40;;;7.40;99.90;;;;;;4912322;29;20253;-76
2021/03/10 19:39:20;;;;;;;15.53;5.50;;;7.30;99.90;;;;;;4911670;29;20245;-74
2021/03/10 19:41:47;;;;;;;11.87;5.43;;;7.30;99.90;;;;;;4916920;29;20241;-75
2021/03/10 19:44:13;;;;;;;13.37;5.43;;;7.20;99.90;;;;;;4912022;29;20213;-75
2021/03/10 19:46:40;;;;;;;11.40;4.93;;;7.20;99.90;;;;;;4908310;29;20221;-74
2021/03/10 19:49:06;;;;;;;12.67;5.53;;;7.20;99.90;;;;;;4913543;29;20237;-75
2021/03/10 19:51:33;;;;;;;11.90;6.37;;;7.20;99.90;;;;;;4910568;29;20291;-74
2021/03/10 19:53:59;;;;;;;11.27;5.30;;;7.30;99.90;;;;;;4912733;29;20265;-74
2021/03/10 19:56:25;;;;;;;11.57;5.43;;;7.30;99.90;;;;;;4908198;29;20206;-74
2021/03/10 19:58:52;;;;;;;14.70;5.63;;;7.20;99.90;;;;;;4903083;29;20254;-74
2021/03/10 20:01:19;;;;;;;11.20;5.67;;;7.20;99.90;;;;;;4910094;29;20289;-74
2021/03/10 20:03:45;;;;;;;13.07;5.63;;;7.30;99.90;;;;;;4910587;29;20681;-75
2021/03/10 20:06:11;;;;;;;13.23;6.23;;;7.30;99.90;;;;;;4911405;29;20225;-74
2021/03/10 20:08:37;;;;;;;13.37;5.23;;;7.30;99.90;;;;;;4906755;29;20281;-74
2021/03/10 20:11:04;;;;;;;11.30;4.70;;;7.40;99.90;;;;;;4907567;29;20605;-74
2021/03/10 20:13:30;;;;;;;10.43;5.43;;;7.40;99.90;;;;;;4903853;29;20221;-74
2021/03/10 20:15:57;;;;;;;12.37;5.97;;;7.40;99.90;;;;;;4906839;29;20216;-74
2021/03/10 20:18:26;;;;;;;11.33;5.13;;;7.40;99.90;;;;;;4908870;29;20692;-74
2021/03/10 20:20:52;;;;;;;12.43;4.70;;;7.40;99.90;;;;;;4914855;29;20220;-74
2021/03/10 20:23:18;;;;;;;11.23;5.37;;;7.50;99.90;;;;;;4911801;29;20225;-74
2021/03/10 20:25:44;;;;;;;15.30;6.30;;;7.50;99.90;;;;;;4910316;29;20214;-74
2021/03/10 20:28:11;;;;;;;12.57;5.50;;;7.50;99.90;;;;;;4906895;29;20742;-74
2021/03/10 20:30:37;;;;;;;7.73;4.00;;;7.50;99.90;;;;;;4909168;29;20669;-74
2021/03/10 20:33:05;;;;;;;7.73;4.00;;;7.50;99.90;;;;;;4909772;29;20254;-74
2021/03/10 20:35:31;;;;;;;11.67;5.80;;;7.40;99.90;;;;;;4909715;29;20297;-74
2021/03/10 20:37:58;;;;;;;8.60;3.93;;;7.30;99.90;;;;;;4913952;29;20209;-74
2021/03/10 20:40:24;;;;;;;13.37;5.10;;;7.20;99.90;;;;;;4910442;29;20757;-75
2021/03/10 20:42:51;;;;;;;13.67;5.87;;;7.10;99.90;;;;;;4906241;29;20230;-74
2021/03/10 20:45:18;;;;;;;8.27;3.97;;;7.10;99.90;;;;;;4911182;29;20269;-75
2021/03/10 20:47:45;;;;;;;14.17;5.60;;;7.00;99.90;;;;;;4911550;29;20217;-74